Time;durP1;ratioP1;P1;durP2;ratioP2;P2;SDS_P1;SDS_P2;PMS_P1;PMS_P2;Temp;Humidity;BMP_temperature;BMP_pressure;BME280_temperature;BME280_humidity;BME280_pressure;Samples;Min_cycle;Max_cycle;Signal;HPM_P1;HPM_P2
2021/08/26 00:05:40;;;;;;;0.50;0.50;;;19.80;73.60;;;;;;10501705;28;20192;-61
2021/08/26 00:07:01;;;;;;;0.70;0.50;;;19.80;72.50;;;;;;10498730;28;20202;-62
2021/08/26 00:12:24;;;;;;;0.50;0.50;;;19.80;73.40;;;;;;10480913;28;20212;-61
2021/08/26 00:17:47;;;;;;;0.73;0.70;;;19.80;73.60;;;;;;10478431;28;20189;-60
2021/08/26 00:23:10;;;;;;;0.67;0.50;;;19.80;72.70;;;;;;10498527;28;20650;-60
2021/08/26 00:28:32;;;;;;;0.93;0.50;;;19.80;73.40;;;;;;10498529;28;20216;-61
2021/08/26 00:33:54;;;;;;;0.87;0.60;;;19.70;73.50;;;;;;10498614;28;20216;-61
2021/08/26 00:39:18;;;;;;;0.80;0.70;;;19.80;72.70;;;;;;10497386;28;20196;-59
2021/08/26 00:50:26;;;;;;;1.10;0.83;;;19.70;73.30;;;;;;10390702;28;20461;-61
2021/08/26 00:55:50;;;;;;;0.80;0.60;;;20.10;71.90;;;;;;10509160;28;20463;-59
2021/08/26 01:01:13;;;;;;;0.83;0.83;;;19.90;72.70;;;;;;10500314;28;20184;-61
2021/08/26 01:06:43;;;;;;;1.30;0.60;;;19.80;73.10;;;;;;10496962;28;20192;-60
2021/08/26 01:12:09;;;;;;;0.90;0.57;;;19.80;72.50;;;;;;10475360;28;20221;-62
2021/08/26 01:17:32;;;;;;;1.47;0.80;;;19.80;73.20;;;;;;10497276;28;20192;-61
2021/08/26 01:22:54;;;;;;;1.63;0.67;;;19.80;73.30;;;;;;10495310;28;20220;-63
2021/08/26 01:28:18;;;;;;;0.83;0.60;;;19.80;72.70;;;;;;10495229;28;20205;-61
2021/08/26 01:33:41;;;;;;;0.90;0.67;;;19.70;73.30;;;;;;10496245;28;20564;-62
2021/08/26 01:39:05;;;;;;;2.23;0.80;;;19.70;73.30;;;;;;10456096;28;20193;-61
2021/08/26 01:44:30;;;;;;;1.10;0.60;;;19.80;72.70;;;;;;10494895;28;20220;-63
2021/08/26 01:49:53;;;;;;;1.33;0.70;;;19.80;73.30;;;;;;10494193;28;20216;-61
2021/08/26 01:55:15;;;;;;;1.13;0.70;;;19.70;73.20;;;;;;10485361;28;20212;-60
2021/08/26 02:00:39;;;;;;;1.17;0.50;;;19.70;72.90;;;;;;10494869;28;20207;-62
2021/08/26 02:06:01;;;;;;;0.73;0.60;;;19.70;73.40;;;;;;10512898;22;20243;-63
2021/08/26 02:11:23;;;;;;;1.90;0.83;;;19.70;73.20;;;;;;10470123;28;20408;-61
2021/08/26 02:16:47;;;;;;;1.50;0.80;;;19.70;73.00;;;;;;10450937;28;20201;-60
2021/08/26 02:22:09;;;;;;;2.73;1.10;;;19.70;73.40;;;;;;10453272;28;20220;-62
2021/08/26 02:27:31;;;;;;;1.00;0.70;;;19.70;73.10;;;;;;10452645;28;20197;-63
2021/08/26 02:32:54;;;;;;;1.63;0.97;;;19.80;73.10;;;;;;10451470;28;20224;-62
2021/08/26 02:38:17;;;;;;;1.33;0.77;;;19.70;73.50;;;;;;10446537;28;20189;-62
2021/08/26 02:43:39;;;;;;;1.43;0.87;;;19.70;73.10;;;;;;10412529;28;20219;-62
2021/08/26 02:49:02;;;;;;;1.03;0.90;;;19.70;73.10;;;;;;10411269;28;20220;-63
2021/08/26 02:54:24;;;;;;;2.00;0.97;;;19.70;73.50;;;;;;10430517;28;20217;-61
2021/08/26 02:59:46;;;;;;;1.60;0.70;;;19.70;73.10;;;;;;10432840;28;20201;-60
2021/08/26 03:05:10;;;;;;;1.10;0.70;;;19.70;72.70;;;;;;10412378;28;20225;-61
2021/08/26 03:10:32;;;;;;;1.90;1.00;;;19.70;73.20;;;;;;10419522;28;20687;-61
2021/08/26 03:15:55;;;;;;;1.80;0.90;;;19.70;73.10;;;;;;10443840;28;20232;-58
2021/08/26 03:21:18;;;;;;;1.23;0.87;;;19.70;72.30;;;;;;10411584;28;20201;-61
2021/08/26 03:26:40;;;;;;;2.90;0.90;;;19.70;73.00;;;;;;10409832;28;20194;-62
2021/08/26 03:32:02;;;;;;;1.33;0.77;;;19.70;73.40;;;;;;10429215;28;20226;-62
2021/08/26 03:37:26;;;;;;;0.83;0.50;;;19.70;72.30;;;;;;10411318;28;20196;-58
2021/08/26 03:42:48;;;;;;;1.60;0.90;;;19.70;72.80;;;;;;10410762;28;20220;-60
2021/08/26 03:48:10;;;;;;;1.07;0.73;;;19.70;73.30;;;;;;10409081;28;20206;-61
2021/08/26 03:53:34;;;;;;;0.97;0.70;;;19.70;72.50;;;;;;10439400;28;20743;-62
2021/08/26 03:58:56;;;;;;;1.33;0.70;;;19.70;72.70;;;;;;10423900;28;20201;-61
2021/08/26 04:04:18;;;;;;;1.20;0.90;;;19.70;73.10;;;;;;10445240;28;20232;-61
2021/08/26 04:09:41;;;;;;;1.83;0.87;;;19.80;72.80;;;;;;10447071;28;20229;-61
2021/08/26 04:15:04;;;;;;;2.30;0.90;;;19.80;72.80;;;;;;10453087;28;20232;-61
2021/08/26 04:20:26;;;;;;;1.40;0.77;;;19.70;73.10;;;;;;10418082;28;20695;-63
2021/08/26 04:25:49;;;;;;;1.10;0.73;;;19.70;72.90;;;;;;10418380;28;20584;-63
2021/08/26 04:31:12;;;;;;;0.80;0.60;;;19.80;72.90;;;;;;10447821;28;20220;-63
2021/08/26 04:36:34;;;;;;;2.07;0.80;;;19.80;73.20;;;;;;10456349;28;20251;-60
2021/08/26 04:41:57;;;;;;;2.60;1.00;;;19.80;72.80;;;;;;10455945;28;20195;-61
2021/08/26 04:47:19;;;;;;;1.63;0.93;;;19.70;73.00;;;;;;10455760;28;20221;-61
2021/08/26 04:52:41;;;;;;;2.17;1.00;;;19.80;73.40;;;;;;10453050;28;20743;-61
2021/08/26 04:58:05;;;;;;;1.90;0.80;;;19.80;72.70;;;;;;10435422;28;20197;-61
2021/08/26 05:03:27;;;;;;;0.90;0.63;;;19.80;72.90;;;;;;10446850;28;20221;-61
2021/08/26 05:08:49;;;;;;;1.13;0.70;;;19.80;73.20;;;;;;10420402;28;20208;-61
2021/08/26 05:14:13;;;;;;;1.43;0.90;;;19.80;72.50;;;;;;10454607;28;20704;-62
2021/08/26 05:19:35;;;;;;;2.03;1.10;;;19.80;72.90;;;;;;10454557;28;20568;-62
2021/08/26 05:24:57;;;;;;;2.33;1.00;;;19.80;73.10;;;;;;10451426;28;20216;-62
2021/08/26 05:30:20;;;;;;;1.37;1.07;;;19.80;72.10;;;;;;10426031;28;20236;-63
2021/08/26 05:35:42;;;;;;;2.23;0.97;;;19.80;72.80;;;;;;10414665;28;20218;-61
2021/08/26 05:41:05;;;;;;;2.73;1.20;;;19.80;73.20;;;;;;10421149;28;20220;-65
2021/08/26 05:46:28;;;;;;;1.23;0.70;;;19.80;72.40;;;;;;10414662;28;20253;-65
2021/08/26 05:51:50;;;;;;;1.20;0.87;;;19.80;73.00;;;;;;10440426;28;20224;-66
2021/08/26 05:57:12;;;;;;;1.50;1.00;;;19.80;73.30;;;;;;10452475;28;20580;-64
2021/08/26 06:02:36;;;;;;;1.57;1.00;;;19.80;72.40;;;;;;10413186;28;20217;-62
2021/08/26 06:07:58;;;;;;;0.80;0.70;;;19.80;73.10;;;;;;10434520;28;20200;-62
2021/08/26 06:13:20;;;;;;;1.20;0.93;;;19.80;73.40;;;;;;10453167;28;20213;-61
2021/08/26 06:18:43;;;;;;;1.37;0.80;;;19.80;72.20;;;;;;10418117;28;20200;-62
2021/08/26 06:24:07;;;;;;;1.30;0.67;;;19.80;72.50;;;;;;10414268;28;20213;-62
2021/08/26 06:29:29;;;;;;;2.03;0.90;;;19.80;73.00;;;;;;10419723;28;20292;-64
2021/08/26 06:34:53;;;;;;;1.97;0.90;;;19.80;72.20;;;;;;10452179;28;20231;-61
2021/08/26 06:40:16;;;;;;;1.00;0.70;;;19.90;72.80;;;;;;10449762;28;20200;-62
2021/08/26 06:45:38;;;;;;;1.23;0.70;;;19.90;72.90;;;;;;10448603;28;20592;-63
2021/08/26 06:51:01;;;;;;;1.50;0.83;;;19.90;73.10;;;;;;10448007;28;20583;-62
2021/08/26 06:56:23;;;;;;;1.33;1.00;;;19.90;72.10;;;;;;10418886;28;20225;-63
2021/08/26 07:01:45;;;;;;;1.70;0.80;;;19.90;72.90;;;;;;10447834;28;20200;-62
2021/08/26 07:07:09;;;;;;;0.80;0.60;;;19.90;73.20;;;;;;10435992;28;20201;-63
2021/08/26 07:12:31;;;;;;;0.90;0.60;;;19.90;72.20;;;;;;10450531;28;20600;-63
2021/08/26 07:17:54;;;;;;;1.07;0.83;;;19.90;72.90;;;;;;10450814;28;20573;-63
2021/08/26 07:23:18;;;;;;;1.17;0.73;;;19.90;73.30;;;;;;10409699;28;20220;-62
2021/08/26 07:28:40;;;;;;;2.30;0.80;;;19.90;72.10;;;;;;10411644;28;20197;-63
2021/08/26 07:34:02;;;;;;;1.93;0.80;;;19.90;72.80;;;;;;10451367;28;20221;-62
2021/08/26 07:39:25;;;;;;;1.20;0.80;;;19.80;73.00;;;;;;10451616;28;20420;-63
2021/08/26 07:44:47;;;;;;;2.10;1.00;;;20.00;71.90;;;;;;10450800;28;20217;-62
2021/08/26 07:50:11;;;;;;;1.80;0.70;;;19.90;72.50;;;;;;10435963;28;20707;-63
2021/08/26 07:55:34;;;;;;;1.23;0.80;;;19.90;73.10;;;;;;10453468;28;20244;-63
2021/08/26 08:00:56;;;;;;;2.27;0.83;;;19.90;72.20;;;;;;10435638;28;20315;-62
2021/08/26 08:06:19;;;;;;;2.20;0.97;;;19.90;72.70;;;;;;10494859;22;20236;-61
2021/08/26 08:11:42;;;;;;;1.00;0.83;;;19.80;73.10;;;;;;10492346;28;20595;-57
2021/08/26 08:17:04;;;;;;;1.17;0.73;;;19.80;72.50;;;;;;10473452;28;20212;-61
2021/08/26 08:22:26;;;;;;;2.40;1.13;;;19.80;72.90;;;;;;10498826;28;20192;-62
2021/08/26 08:27:50;;;;;;;1.67;0.90;;;19.80;73.30;;;;;;10499454;28;20691;-62
2021/08/26 08:33:12;;;;;;;0.93;0.70;;;19.80;72.60;;;;;;10498388;28;20312;-62
2021/08/26 08:38:34;;;;;;;1.70;0.93;;;19.80;72.90;;;;;;10498138;28;20200;-60
2021/08/26 08:43:57;;;;;;;1.83;0.80;;;19.80;73.30;;;;;;10497260;28;20219;-61
2021/08/26 08:49:21;;;;;;;1.97;0.90;;;19.80;72.50;;;;;;10495940;28;20223;-59
2021/08/26 08:54:43;;;;;;;0.90;0.73;;;19.80;72.80;;;;;;10498748;28;20303;-60
2021/08/26 09:00:11;;;;;;;1.30;0.87;;;19.80;73.20;;;;;;10522501;28;20192;-61
2021/08/26 09:05:51;;;;;;;1.40;0.90;;;19.80;72.70;;;;;;10500941;28;20223;-61
2021/08/26 09:11:15;;;;;;;2.17;1.00;;;19.80;73.00;;;;;;10481855;28;20294;-61
2021/08/26 09:16:41;;;;;;;2.13;1.00;;;19.80;73.40;;;;;;10453997;28;20216;-60
2021/08/26 09:22:06;;;;;;;1.50;0.90;;;19.80;72.50;;;;;;10451472;28;20204;-60
2021/08/26 09:27:40;;;;;;;2.10;1.13;;;19.80;73.10;;;;;;10483551;28;20242;-61
2021/08/26 09:33:04;;;;;;;1.40;0.80;;;19.80;73.40;;;;;;10493075;28;20224;-61
2021/08/26 09:38:26;;;;;;;1.33;0.80;;;19.80;72.40;;;;;;10495131;28;20200;-61
2021/08/26 09:44:01;;;;;;;1.23;0.70;;;19.80;73.00;;;;;;10496572;28;20583;-62
2021/08/26 09:49:26;;;;;;;1.33;0.90;;;19.80;73.30;;;;;;10495925;28;20737;-60
2021/08/26 09:54:50;;;;;;;1.90;0.70;;;19.80;72.30;;;;;;10519731;28;20227;-61
2021/08/26 10:00:14;;;;;;;1.57;0.60;;;19.80;72.90;;;;;;10494951;28;20191;-62
2021/08/26 10:05:38;;;;;;;2.33;0.87;;;19.80;73.20;;;;;;10493951;28;20231;-60
2021/08/26 10:11:03;;;;;;;1.30;0.90;;;19.90;72.40;;;;;;10494217;28;20220;-61
2021/08/26 10:16:26;;;;;;;1.50;0.80;;;19.80;73.00;;;;;;10493387;28;20220;-60
2021/08/26 10:21:49;;;;;;;1.47;0.73;;;19.80;73.30;;;;;;10493736;28;20199;-62
2021/08/26 10:27:15;;;;;;;2.08;1.17;;;19.80;72.40;;;;;;10490763;28;20422;-60
2021/08/26 10:32:37;;;;;;;2.37;1.13;;;20.30;71.50;;;;;;10493215;28;20219;-60
2021/08/26 10:38:01;;;;;;;2.83;1.13;;;20.00;72.30;;;;;;10494122;28;20192;-58
2021/08/26 10:43:34;;;;;;;1.57;0.83;;;20.00;71.80;;;;;;10493451;28;20439;-60
2021/08/26 10:49:01;;;;;;;1.73;0.87;;;19.90;72.60;;;;;;10493952;28;20208;-61
2021/08/26 10:54:30;;;;;;;2.43;1.10;;;19.80;73.00;;;;;;10514634;28;20293;-61
2021/08/26 10:59:52;;;;;;;2.57;1.13;;;19.90;72.50;;;;;;10522572;28;20198;-60
2021/08/26 11:05:34;;;;;;;2.53;1.43;;;19.80;73.00;;;;;;10534169;28;20227;-61
2021/08/26 11:11:18;;;;;;;3.10;1.47;;;19.80;72.80;;;;;;10522714;28;20579;-61
2021/08/26 11:16:43;;;;;;;4.73;1.40;;;19.80;72.70;;;;;;10492804;28;20216;-61
2021/08/26 11:22:08;;;;;;;3.70;1.80;;;19.80;73.10;;;;;;10496412;28;20200;-61
2021/08/26 11:27:33;;;;;;;3.47;1.67;;;19.80;72.80;;;;;;10500644;28;20196;-60
2021/08/26 11:32:55;;;;;;;4.43;2.17;;;19.80;72.90;;;;;;10500822;28;20301;-56
2021/08/26 11:38:17;;;;;;;4.17;2.03;;;19.80;73.30;;;;;;10497346;28;20206;-59
2021/08/26 11:43:43;;;;;;;5.60;1.93;;;19.80;72.60;;;;;;10501340;28;20590;-60
2021/08/26 11:49:05;;;;;;;5.30;2.43;;;19.80;73.10;;;;;;10500975;28;20704;-59
2021/08/26 11:54:27;;;;;;;5.33;2.10;;;19.80;73.30;;;;;;10501543;28;20291;-60
2021/08/26 11:59:50;;;;;;;2.90;1.90;;;19.80;72.50;;;;;;10511903;28;20188;-58
2021/08/26 12:05:14;;;;;;;5.43;2.10;;;19.80;73.10;;;;;;10499340;28;20722;-61
2021/08/26 12:10:43;;;;;;;5.40;2.40;;;19.80;73.40;;;;;;10490322;28;20607;-61
2021/08/26 12:16:06;;;;;;;4.73;2.00;;;19.80;72.60;;;;;;10499427;28;20295;-61
2021/08/26 12:21:29;;;;;;;6.23;2.40;;;19.80;73.10;;;;;;10497755;28;20192;-60
2021/08/26 12:26:51;;;;;;;3.97;1.90;;;19.80;73.30;;;;;;10483058;28;20220;-59
2021/08/26 12:32:29;;;;;;;5.33;2.37;;;19.80;72.70;;;;;;10479713;28;20217;-59
2021/08/26 12:37:54;;;;;;;4.07;2.00;;;19.80;73.10;;;;;;10457775;28;20200;-60
2021/08/26 12:43:16;;;;;;;3.60;1.90;;;19.80;73.10;;;;;;10478634;28;20701;-61
2021/08/26 12:48:41;;;;;;;4.20;2.10;;;19.80;72.80;;;;;;10498559;28;20211;-58
2021/08/26 12:54:14;;;;;;;4.57;1.93;;;19.80;73.20;;;;;;10516052;28;20230;-59
2021/08/26 12:59:40;;;;;;;4.50;2.07;;;19.80;72.90;;;;;;10515439;28;20200;-60
2021/08/26 13:05:06;;;;;;;3.30;1.93;;;19.80;72.90;;;;;;10495438;28;20228;-61
2021/08/26 13:10:28;;;;;;;4.17;1.97;;;19.80;73.30;;;;;;10496250;28;20701;-60
2021/08/26 13:15:51;;;;;;;3.67;1.80;;;19.80;72.80;;;;;;10507916;28;20591;-58
2021/08/26 13:21:15;;;;;;;3.63;1.63;;;19.80;73.00;;;;;;10496067;28;20196;-61
2021/08/26 13:26:37;;;;;;;3.00;1.73;;;19.80;73.40;;;;;;10496972;28;20234;-60
2021/08/26 13:31:59;;;;;;;3.93;1.57;;;19.80;72.70;;;;;;10495711;28;20295;-60
2021/08/26 13:37:23;;;;;;;4.50;1.93;;;19.80;72.90;;;;;;10495228;28;20207;-61
2021/08/26 13:42:46;;;;;;;3.72;1.90;;;19.80;73.00;;;;;;10492006;28;20778;-59
2021/08/26 13:48:08;;;;;;;2.90;1.53;;;19.90;72.00;;;;;;10494770;28;20188;-58
2021/08/26 13:53:31;;;;;;;3.33;1.93;;;19.90;72.60;;;;;;10495688;28;20725;-62
2021/08/26 13:58:54;;;;;;;4.30;1.80;;;19.90;72.90;;;;;;10503300;28;20200;-59
2021/08/26 14:04:16;;;;;;;3.70;1.77;;;19.90;72.30;;;;;;10506419;22;20237;-63
2021/08/26 14:09:40;;;;;;;4.20;2.00;;;19.90;72.90;;;;;;10475861;28;20579;-64
2021/08/26 14:15:02;;;;;;;4.50;1.93;;;19.90;73.00;;;;;;10486484;28;20217;-69
2021/08/26 14:20:24;;;;;;;3.40;1.50;;;19.90;72.40;;;;;;10490326;28;20197;-70
2021/08/26 14:25:48;;;;;;;2.67;1.40;;;19.80;71.50;;;;;;10490904;28;20260;-69
2021/08/26 14:31:10;;;;;;;2.37;1.30;;;19.70;70.50;;;;;;10492704;28;20212;-69
2021/08/26 14:36:32;;;;;;;3.07;1.30;;;19.70;70.10;;;;;;10493123;28;20564;-69
2021/08/26 14:41:56;;;;;;;1.83;1.00;;;19.60;70.00;;;;;;10493109;28;20188;-67
2021/08/26 14:47:18;;;;;;;1.80;0.90;;;19.60;69.40;;;;;;10493688;28;20212;-68
2021/08/26 14:52:40;;;;;;;1.80;0.83;;;19.60;69.30;;;;;;10498070;28;20242;-69
2021/08/26 14:58:04;;;;;;;5.30;1.00;;;19.50;69.40;;;;;;10496432;28;20406;-69
2021/08/26 15:03:26;;;;;;;1.83;0.87;;;19.50;68.90;;;;;;10492196;28;20664;-66
2021/08/26 15:08:48;;;;;;;1.83;0.90;;;19.50;69.10;;;;;;10493305;28;20196;-69
2021/08/26 15:14:12;;;;;;;1.07;0.63;;;19.50;69.00;;;;;;10492772;28;20223;-69
2021/08/26 15:19:34;;;;;;;3.63;0.67;;;19.50;68.50;;;;;;10492825;28;20233;-69
2021/08/26 15:24:56;;;;;;;2.13;0.80;;;19.50;68.60;;;;;;10491716;28;20311;-66
2021/08/26 15:30:20;;;;;;;0.90;0.60;;;19.50;68.50;;;;;;10483662;28;20204;-69
2021/08/26 15:35:42;;;;;;;1.70;0.53;;;19.50;68.40;;;;;;10490291;28;20216;-69
2021/08/26 15:41:04;;;;;;;1.40;0.70;;;19.50;67.90;;;;;;10489317;28;20207;-69
2021/08/26 15:46:28;;;;;;;2.90;0.90;;;19.50;67.80;;;;;;10492123;28;20220;-67
2021/08/26 15:51:54;;;;;;;2.07;0.80;;;19.50;67.80;;;;;;10490535;28;20216;-69
2021/08/26 15:57:31;;;;;;;1.80;0.70;;;19.50;67.70;;;;;;10463991;28;20208;-68
2021/08/26 16:02:54;;;;;;;1.83;0.70;;;19.50;67.60;;;;;;10532999;28;20195;-68
2021/08/26 16:08:18;;;;;;;2.40;0.80;;;19.50;67.70;;;;;;10446348;28;20197;-67
2021/08/26 16:13:41;;;;;;;2.80;0.80;;;19.50;70.20;;;;;;10492622;28;20541;-69
2021/08/26 16:19:05;;;;;;;2.73;0.93;;;19.60;70.00;;;;;;10492168;28;20200;-70
2021/08/26 16:24:27;;;;;;;1.90;1.00;;;19.60;70.30;;;;;;10492154;28;20223;-67
2021/08/26 16:29:49;;;;;;;0.70;0.50;;;19.60;71.50;;;;;;10489822;28;20207;-69
2021/08/26 16:35:13;;;;;;;3.37;0.80;;;19.60;70.70;;;;;;10487960;28;20718;-69
2021/08/26 16:40:35;;;;;;;1.87;0.90;;;19.60;70.80;;;;;;10488466;28;20192;-68
2021/08/26 16:45:57;;;;;;;3.40;0.90;;;19.60;71.80;;;;;;10490864;28;20212;-69
2021/08/26 16:51:21;;;;;;;2.33;0.90;;;19.60;71.30;;;;;;10490106;28;20628;-69
2021/08/26 16:56:43;;;;;;;2.00;1.00;;;19.60;71.00;;;;;;10497793;28;20228;-69
2021/08/26 17:02:05;;;;;;;3.03;0.73;;;19.60;71.60;;;;;;10460306;28;20203;-69
2021/08/26 17:07:29;;;;;;;1.47;0.70;;;19.60;72.30;;;;;;10454920;28;20224;-65
2021/08/26 17:12:51;;;;;;;1.80;0.90;;;19.60;71.80;;;;;;10483544;28;20220;-67
2021/08/26 17:18:15;;;;;;;1.47;0.70;;;19.60;71.70;;;;;;10496506;28;20207;-68
2021/08/26 17:23:38;;;;;;;1.30;0.70;;;19.60;72.00;;;;;;10502313;28;20216;-66
2021/08/26 17:29:00;;;;;;;1.03;0.60;;;19.60;72.40;;;;;;10507597;28;20188;-68
2021/08/26 17:34:22;;;;;;;2.87;0.60;;;19.60;72.00;;;;;;10495499;28;20583;-67
2021/08/26 17:39:46;;;;;;;1.30;0.70;;;19.60;71.50;;;;;;10495953;28;20196;-67
2021/08/26 17:45:09;;;;;;;1.70;0.70;;;19.60;71.00;;;;;;10527494;28;20212;-67
2021/08/26 17:50:32;;;;;;;2.43;0.67;;;19.60;70.60;;;;;;10496017;28;20200;-67
2021/08/26 17:55:57;;;;;;;1.80;0.53;;;19.60;70.20;;;;;;10528956;28;20219;-67
2021/08/26 18:01:19;;;;;;;1.80;0.63;;;19.50;70.10;;;;;;10499313;28;20291;-67
2021/08/26 18:06:41;;;;;;;1.40;0.60;;;19.50;70.00;;;;;;10493752;28;20216;-67
2021/08/26 18:12:05;;;;;;;1.57;0.70;;;19.50;69.90;;;;;;10473184;28;20217;-69
2021/08/26 18:17:27;;;;;;;3.10;1.00;;;19.50;69.80;;;;;;10464827;28;20433;-66
2021/08/26 18:22:51;;;;;;;2.03;0.77;;;19.70;69.10;;;;;;10493030;28;20563;-66
2021/08/26 18:28:14;;;;;;;1.63;0.70;;;19.70;68.70;;;;;;10489250;28;20203;-67
2021/08/26 18:33:36;;;;;;;1.50;0.70;;;19.60;68.50;;;;;;10472699;28;20603;-67
2021/08/26 18:38:58;;;;;;;1.30;0.70;;;19.60;68.70;;;;;;10488045;28;20200;-65
2021/08/26 18:44:22;;;;;;;0.93;0.57;;;19.60;69.30;;;;;;10487483;28;20219;-67
2021/08/26 18:49:44;;;;;;;1.30;0.60;;;19.60;69.90;;;;;;10487660;28;20200;-66
2021/08/26 18:55:07;;;;;;;1.00;0.60;;;19.60;70.40;;;;;;10514749;28;20238;-65
2021/08/26 19:00:31;;;;;;;0.83;0.60;;;19.60;70.70;;;;;;10501204;28;20197;-65
2021/08/26 19:05:54;;;;;;;2.27;0.60;;;19.70;71.20;;;;;;10464568;28;20221;-65
2021/08/26 19:11:16;;;;;;;1.40;0.63;;;19.60;72.10;;;;;;10462172;28;20208;-65
2021/08/26 19:16:41;;;;;;;1.10;0.50;;;19.60;72.20;;;;;;10479568;28;20216;-64
2021/08/26 19:22:03;;;;;;;0.60;0.50;;;19.70;72.10;;;;;;10454886;28;20311;-64
2021/08/26 19:27:25;;;;;;;0.80;0.57;;;19.70;72.20;;;;;;10450609;28;20219;-65
2021/08/26 19:32:49;;;;;;;0.90;0.50;;;19.70;72.50;;;;;;10465255;28;20729;-64
2021/08/26 19:38:11;;;;;;;1.03;0.50;;;19.60;72.40;;;;;;10475611;28;20217;-64
2021/08/26 19:43:33;;;;;;;0.83;0.50;;;19.60;72.40;;;;;;10475144;28;20219;-64
2021/08/26 19:48:57;;;;;;;1.03;0.50;;;19.60;72.40;;;;;;10469392;28;20200;-64
2021/08/26 19:54:19;;;;;;;0.63;0.43;;;19.70;72.40;;;;;;10490016;28;20219;-64
2021/08/26 19:59:41;;;;;;;0.70;0.40;;;19.70;72.50;;;;;;10496987;28;20196;-64
2021/08/26 20:05:05;;;;;;;1.10;0.50;;;19.60;72.50;;;;;;10531454;22;20621;-65
2021/08/26 20:10:28;;;;;;;1.23;0.60;;;19.60;72.60;;;;;;10483244;28;20293;-65
2021/08/26 20:15:50;;;;;;;0.57;0.50;;;19.60;72.70;;;;;;10458803;28;20212;-65
2021/08/26 20:21:13;;;;;;;0.80;0.40;;;19.60;72.80;;;;;;10441922;28;20197;-65
2021/08/26 20:26:36;;;;;;;0.87;0.40;;;19.60;72.90;;;;;;10439997;28;20209;-64
2021/08/26 20:31:58;;;;;;;1.33;0.40;;;19.60;73.00;;;;;;10438056;28;20706;-66
2021/08/26 20:37:21;;;;;;;0.83;0.50;;;19.60;73.10;;;;;;10429036;28;20219;-65
2021/08/26 20:42:43;;;;;;;1.20;0.43;;;19.60;73.20;;;;;;10457098;28;20690;-65
2021/08/26 20:48:06;;;;;;;1.07;0.50;;;19.60;73.20;;;;;;10458186;28;20217;-65
2021/08/26 20:53:29;;;;;;;0.73;0.57;;;19.50;73.30;;;;;;10442917;28;20229;-65
2021/08/26 20:58:52;;;;;;;0.53;0.33;;;19.50;73.40;;;;;;10431256;28;20201;-66
2021/08/26 21:04:14;;;;;;;1.47;0.60;;;19.60;73.70;;;;;;10444134;28;20327;-64
2021/08/26 21:09:37;;;;;;;0.97;0.60;;;19.60;74.10;;;;;;10440789;28;20205;-65
2021/08/26 21:14:59;;;;;;;1.73;0.70;;;19.50;74.10;;;;;;10455581;28;20600;-64
2021/08/26 21:20:21;;;;;;;0.70;0.40;;;19.60;73.60;;;;;;10454695;28;20230;-64
2021/08/26 21:25:45;;;;;;;0.30;0.30;;;19.60;73.70;;;;;;10458015;28;20223;-65
2021/08/26 21:31:07;;;;;;;0.30;0.30;;;19.60;74.00;;;;;;10496132;28;20675;-66
2021/08/26 21:36:29;;;;;;;0.53;0.30;;;19.60;74.00;;;;;;10440046;28;20284;-66
2021/08/26 21:41:53;;;;;;;0.40;0.40;;;19.50;73.90;;;;;;10455373;28;20313;-65
2021/08/26 21:47:15;;;;;;;0.50;0.40;;;19.60;74.00;;;;;;10454808;28;20719;-66
2021/08/26 21:52:37;;;;;;;0.87;0.40;;;19.50;73.90;;;;;;10448698;28;20217;-66
2021/08/26 21:58:01;;;;;;;0.93;0.40;;;19.50;74.00;;;;;;10422779;28;20761;-65
2021/08/26 22:03:23;;;;;;;1.50;0.80;;;19.50;74.00;;;;;;10454894;28;20201;-65
2021/08/26 22:08:45;;;;;;;0.57;0.50;;;19.50;74.60;;;;;;10458362;28;20192;-65
2021/08/26 22:14:09;;;;;;;1.00;0.50;;;19.50;74.10;;;;;;10456758;28;20221;-65
2021/08/26 22:19:31;;;;;;;1.27;0.50;;;19.50;74.10;;;;;;10454613;28;20196;-65
2021/08/26 22:24:53;;;;;;;0.60;0.40;;;19.50;74.20;;;;;;10454240;28;20426;-63
2021/08/26 22:30:17;;;;;;;0.77;0.40;;;19.50;74.20;;;;;;10453551;28;20193;-64
2021/08/26 22:35:40;;;;;;;0.43;0.30;;;19.50;74.30;;;;;;10475270;28;20767;-64
2021/08/26 22:41:02;;;;;;;1.10;0.47;;;19.50;74.30;;;;;;10494504;28;20200;-61
2021/08/26 22:46:26;;;;;;;0.80;0.40;;;19.50;74.40;;;;;;10493171;28;20216;-65
2021/08/26 22:51:49;;;;;;;0.40;0.40;;;19.50;74.50;;;;;;10493734;28;20216;-64
2021/08/26 22:57:16;;;;;;;0.57;0.30;;;19.50;74.50;;;;;;10414574;28;20218;-65
2021/08/26 23:02:39;;;;;;;0.40;0.40;;;19.50;74.60;;;;;;10451516;28;20200;-63
2021/08/26 23:08:01;;;;;;;0.90;0.60;;;19.50;74.60;;;;;;10411392;28;20225;-64
2021/08/26 23:13:23;;;;;;;0.40;0.30;;;19.50;74.60;;;;;;10462615;28;20598;-63
2021/08/26 23:18:47;;;;;;;0.67;0.33;;;19.50;74.70;;;;;;10492430;28;20193;-64
2021/08/26 23:24:09;;;;;;;0.50;0.40;;;19.50;74.80;;;;;;10493023;28;20208;-65
2021/08/26 23:29:31;;;;;;;0.90;0.37;;;19.50;74.80;;;;;;10492661;28;20193;-62
2021/08/26 23:34:55;;;;;;;1.13;0.60;;;19.50;74.80;;;;;;10476424;28;20224;-64
2021/08/26 23:40:17;;;;;;;0.87;0.40;;;19.50;74.90;;;;;;10449286;28;20196;-63
2021/08/26 23:45:39;;;;;;;0.47;0.47;;;19.50;74.40;;;;;;10449755;28;20688;-65
2021/08/26 23:51:02;;;;;;;0.50;0.50;;;19.50;73.10;;;;;;10441262;28;20258;-61
2021/08/26 23:56:25;;;;;;;0.80;0.50;;;19.50;73.70;;;;;;10451361;28;20227;-65
